createdAt,value
2016-11-05T00:00:56.638Z,20.13
2016-11-05T00:01:56.623Z,20.02
2016-11-05T00:02:56.598Z,20.08
2016-11-05T00:03:56.598Z,20.13
2016-11-05T00:04:56.565Z,20.04
2016-11-05T00:05:56.256Z,20.13
2016-11-05T00:06:56.583Z,20.07
2016-11-05T00:07:56.214Z,20.04
2016-11-05T00:08:56.197Z,20.1
2016-11-05T00:09:56.493Z,20.15
2016-11-05T00:10:56.178Z,20.12
2016-11-05T00:11:56.453Z,20.12
2016-11-05T00:12:56.440Z,20.12
2016-11-05T00:13:56.423Z,20.05
2016-11-05T00:14:56.410Z,20.1
2016-11-05T00:15:56.087Z,19.98
2016-11-05T00:16:56.379Z,20.13
2016-11-05T00:17:56.356Z,19.98
2016-11-05T00:18:56.041Z,20.01
2016-11-05T00:19:56.321Z,19.97
2016-11-05T00:20:56.324Z,20.07
2016-11-05T00:21:56.302Z,19.95
2016-11-05T00:22:56.295Z,19.97
2016-11-05T00:23:55.955Z,20.01
2016-11-05T00:24:55.946Z,19.95
2016-11-05T00:25:55.927Z,19.95
2016-11-05T00:26:55.611Z,19.95
2016-11-05T00:27:55.626Z,19.92
2016-11-05T00:28:55.875Z,19.95
2016-11-05T00:29:56.168Z,19.98
2016-11-05T00:30:56.150Z,19.92
2016-11-05T00:31:55.837Z,19.98
2016-11-05T00:32:56.124Z,19.87
2016-11-05T00:33:56.137Z,20.02
2016-11-05T00:34:56.119Z,20.01
2016-11-05T00:35:56.066Z,19.98
2016-11-05T00:36:56.056Z,19.97
2016-11-05T00:37:56.086Z,19.92
2016-11-05T00:38:56.015Z,19.97
2016-11-05T00:39:55.718Z,20.02
2016-11-05T00:40:55.697Z,20.01
2016-11-05T00:41:55.971Z,19.98
2016-11-05T00:42:55.656Z,19.94
2016-11-05T00:43:55.933Z,19.98
2016-11-05T00:44:55.920Z,19.94
2016-11-05T00:45:55.903Z,20.05
2016-11-05T00:46:55.900Z,19.98
2016-11-05T00:47:55.882Z,19.98
2016-11-05T00:48:55.553Z,19.98
2016-11-05T00:49:55.543Z,19.9
2016-11-05T00:50:55.827Z,19.94
2016-11-05T00:51:55.810Z,19.97
2016-11-05T00:52:55.191Z,19.97
2016-11-05T00:53:55.773Z,19.94
2016-11-05T00:54:55.760Z,19.95
2016-11-05T00:55:55.741Z,19.97
2016-11-05T00:56:55.730Z,19.98
2016-11-05T00:57:55.710Z,19.97
2016-11-05T00:58:55.701Z,20
2016-11-05T00:59:55.676Z,19.9
2016-11-05T01:00:55.664Z,19.97
2016-11-05T01:01:55.375Z,19.97
2016-11-05T01:02:55.330Z,19.92
2016-11-05T01:03:55.615Z,19.86
2016-11-05T01:04:55.597Z,19.9
2016-11-05T01:05:55.591Z,19.9
2016-11-05T01:06:55.567Z,19.86
2016-11-05T01:07:55.546Z,19.87
2016-11-05T01:08:55.539Z,19.83
2016-11-05T01:09:55.514Z,19.87
2016-11-05T01:10:55.496Z,19.9
2016-11-05T01:11:55.494Z,19.87
2016-11-05T01:12:55.482Z,19.83
2016-11-05T01:13:55.451Z,19.82
2016-11-05T01:14:55.444Z,19.85
2016-11-05T01:15:55.422Z,19.86
2016-11-05T01:16:55.403Z,19.85
2016-11-05T01:17:55.390Z,19.86
2016-11-05T01:18:55.370Z,19.83
2016-11-05T01:19:55.356Z,19.8
2016-11-05T01:20:55.344Z,19.8
2016-11-05T01:21:55.321Z,19.82
2016-11-05T01:22:55.309Z,19.9
2016-11-05T01:23:55.291Z,19.83
2016-11-05T01:24:55.276Z,19.82
2016-11-05T01:25:55.257Z,19.79
2016-11-05T01:26:55.242Z,19.78
2016-11-05T01:27:55.230Z,19.82
2016-11-05T01:28:55.210Z,19.82
2016-11-05T01:29:55.197Z,19.78
2016-11-05T01:30:55.181Z,19.83
2016-11-05T01:31:55.193Z,19.82
2016-11-05T01:32:54.860Z,19.79
2016-11-05T01:33:55.130Z,19.85
2016-11-05T01:34:55.117Z,19.79
2016-11-05T01:35:55.094Z,19.76
2016-11-05T01:36:55.081Z,19.78
2016-11-05T01:37:55.064Z,19.71
2016-11-05T01:38:54.751Z,19.67
2016-11-05T01:39:55.033Z,19.67
2016-11-05T01:40:55.012Z,19.72
2016-11-05T01:41:54.399Z,19.7
2016-11-05T01:42:55.013Z,19.72
2016-11-05T01:43:54.968Z,19.68
2016-11-05T01:44:54.949Z,19.68
2016-11-05T01:45:54.964Z,19.62
2016-11-05T01:46:54.920Z,19.62
2016-11-05T01:47:54.936Z,19.8
2016-11-05T01:48:54.883Z,19.62
2016-11-05T01:49:54.869Z,19.7
2016-11-05T01:50:54.852Z,19.72
2016-11-05T01:51:54.840Z,19.65
2016-11-05T01:52:54.825Z,19.7
2016-11-05T01:53:54.806Z,19.65
2016-11-05T01:54:54.793Z,19.68
2016-11-05T01:55:54.772Z,19.7
2016-11-05T01:56:54.454Z,19.64
2016-11-05T01:57:54.741Z,19.72
2016-11-05T01:58:54.724Z,19.68
2016-11-05T01:59:54.707Z,19.68
2016-11-05T02:00:54.695Z,19.65
2016-11-05T02:01:54.672Z,19.6
2016-11-05T02:02:54.661Z,19.68
2016-11-05T02:03:54.642Z,19.67
2016-11-05T02:04:54.627Z,19.68
2016-11-05T02:05:54.613Z,19.75
2016-11-05T02:06:54.296Z,19.79
2016-11-05T02:07:54.271Z,19.68
2016-11-05T02:08:54.561Z,19.61
2016-11-05T02:09:54.544Z,19.64
2016-11-05T02:10:54.539Z,19.7
2016-11-05T02:11:54.665Z,19.67
2016-11-05T02:12:54.493Z,19.6
2016-11-05T02:13:54.176Z,19.76
2016-11-05T02:14:54.168Z,19.75
2016-11-05T02:15:54.485Z,19.78
2016-11-05T02:16:54.432Z,19.64
2016-11-05T02:17:54.410Z,19.67
2016-11-05T02:18:54.391Z,19.71
2016-11-05T02:19:54.374Z,19.78
2016-11-05T02:20:54.363Z,19.79
2016-11-05T02:21:54.343Z,19.62
2016-11-05T02:22:54.368Z,19.68
2016-11-05T02:23:54.311Z,19.71
2016-11-05T02:24:54.301Z,19.67
2016-11-05T02:25:54.280Z,19.72
2016-11-05T02:26:54.263Z,19.62
2016-11-05T02:27:53.946Z,19.7
2016-11-05T02:28:54.240Z,19.62
2016-11-05T02:29:53.913Z,19.72
2016-11-05T02:30:54.196Z,19.6
2016-11-05T02:31:54.179Z,19.64
2016-11-05T02:32:54.163Z,19.62
2016-11-05T02:33:54.158Z,19.62
2016-11-05T02:34:54.137Z,19.72
2016-11-05T02:35:53.818Z,19.62
2016-11-05T02:36:54.100Z,19.7
2016-11-05T02:37:53.781Z,19.6
2016-11-05T02:38:53.773Z,19.62
2016-11-05T02:39:54.052Z,19.61
2016-11-05T02:40:54.050Z,19.64
2016-11-05T02:41:54.021Z,19.65
2016-11-05T02:42:54.005Z,19.67
2016-11-05T02:43:53.684Z,19.67
2016-11-05T02:44:53.977Z,19.57
2016-11-05T02:45:53.956Z,19.61
2016-11-05T02:46:53.967Z,19.6
2016-11-05T02:47:53.918Z,19.67
2016-11-05T02:48:53.904Z,19.6
2016-11-05T02:49:53.885Z,19.62
2016-11-05T02:50:53.872Z,19.62
2016-11-05T02:51:53.855Z,19.61
2016-11-05T02:52:53.841Z,19.6
2016-11-05T02:53:53.531Z,19.65
2016-11-05T02:54:53.803Z,19.61
2016-11-05T02:55:53.790Z,19.62
2016-11-05T02:56:53.773Z,19.62
2016-11-05T02:57:53.773Z,19.62
2016-11-05T02:58:53.738Z,19.65
2016-11-05T02:59:53.733Z,19.61
2016-11-05T03:00:53.705Z,19.62
2016-11-05T03:01:53.692Z,19.62
2016-11-05T03:02:53.672Z,19.61
2016-11-05T03:03:53.660Z,19.57
2016-11-05T03:04:53.343Z,19.6
2016-11-05T03:05:53.627Z,19.64
2016-11-05T03:06:53.612Z,19.61
2016-11-05T03:07:53.323Z,19.57
2016-11-05T03:08:53.578Z,19.68
2016-11-05T03:09:53.573Z,19.62
2016-11-05T03:10:53.545Z,19.58
2016-11-05T03:11:53.532Z,19.58
2016-11-05T03:12:53.517Z,19.58
2016-11-05T03:13:52.894Z,19.58
2016-11-05T03:14:53.479Z,19.61
2016-11-05T03:15:53.464Z,19.61
2016-11-05T03:16:53.442Z,19.61
2016-11-05T03:17:53.431Z,19.61
2016-11-05T03:18:52.812Z,19.55
2016-11-05T03:19:53.394Z,19.61
2016-11-05T03:20:53.379Z,19.57
2016-11-05T03:21:53.368Z,19.57
2016-11-05T03:22:53.043Z,19.53
2016-11-05T03:23:53.034Z,19.52
2016-11-05T03:24:53.026Z,19.57
2016-11-05T03:25:53.301Z,19.5
2016-11-05T03:26:53.287Z,19.57
2016-11-05T03:27:52.969Z,19.57
2016-11-05T03:28:52.651Z,19.55
2016-11-05T03:29:52.935Z,19.55
2016-11-05T03:30:53.218Z,19.58
2016-11-05T03:31:53.205Z,19.52
2016-11-05T03:32:53.183Z,19.55
2016-11-05T03:33:53.167Z,19.55
2016-11-05T03:34:53.150Z,19.55
2016-11-05T03:35:53.137Z,19.57
2016-11-05T03:36:53.120Z,19.53
2016-11-05T03:37:53.105Z,19.53
2016-11-05T03:38:53.092Z,19.53
2016-11-05T03:39:53.072Z,19.6
2016-11-05T03:40:53.053Z,19.53
2016-11-05T03:41:53.041Z,19.52
2016-11-05T03:42:53.020Z,19.53
2016-11-05T03:43:53.005Z,19.55
2016-11-05T03:44:52.998Z,19.49
2016-11-05T03:45:52.975Z,19.52
2016-11-05T03:46:52.956Z,19.45
2016-11-05T03:47:52.944Z,19.43
2016-11-05T03:48:52.926Z,19.5
2016-11-05T03:49:52.910Z,19.4
2016-11-05T03:50:52.890Z,19.43
2016-11-05T03:51:52.870Z,19.42
2016-11-05T03:52:52.905Z,19.43
2016-11-05T03:53:52.838Z,19.47
2016-11-05T03:54:52.822Z,19.49
2016-11-05T03:55:52.809Z,19.47
2016-11-05T03:56:52.796Z,19.4
2016-11-05T03:57:52.783Z,19.4
2016-11-05T03:58:52.462Z,19.45
2016-11-05T03:59:52.745Z,19.45
2016-11-05T04:00:52.723Z,19.49
2016-11-05T04:01:52.714Z,19.4
2016-11-05T04:02:52.693Z,19.49
2016-11-05T04:03:52.678Z,19.45
2016-11-05T04:04:52.666Z,19.47
2016-11-05T04:05:52.649Z,19.42
2016-11-05T04:06:52.626Z,19.39
2016-11-05T04:07:52.616Z,19.45
2016-11-05T04:08:52.293Z,19.45
2016-11-05T04:09:52.584Z,19.42
2016-11-05T04:10:52.565Z,19.49
2016-11-05T04:11:52.244Z,19.47
2016-11-05T04:12:52.529Z,19.46
2016-11-05T04:13:52.518Z,19.4
2016-11-05T04:14:52.500Z,19.49
2016-11-05T04:15:52.489Z,19.4
2016-11-05T04:16:52.467Z,19.42
2016-11-05T04:17:52.149Z,19.4
2016-11-05T04:18:52.129Z,19.43
2016-11-05T04:19:52.118Z,19.43
2016-11-05T04:20:52.095Z,19.43
2016-11-05T04:21:52.383Z,19.45
2016-11-05T04:22:52.365Z,19.39
2016-11-05T04:23:52.355Z,19.43
2016-11-05T04:24:52.328Z,19.45
2016-11-05T04:25:52.323Z,19.47
2016-11-05T04:26:52.297Z,19.42
2016-11-05T04:27:52.284Z,19.42
2016-11-05T04:28:52.270Z,19.38
2016-11-05T04:29:52.254Z,19.45
2016-11-05T04:30:52.231Z,19.45
2016-11-05T04:31:52.214Z,19.45
2016-11-05T04:32:52.209Z,19.46
2016-11-05T04:33:51.915Z,19.42
2016-11-05T04:34:51.869Z,19.46
2016-11-05T04:35:52.151Z,19.45
2016-11-05T04:36:52.138Z,19.3
2016-11-05T04:37:52.161Z,19.4
2016-11-05T04:38:52.104Z,19.42
2016-11-05T04:39:52.088Z,19.35
2016-11-05T04:40:52.070Z,19.42
2016-11-05T04:41:52.050Z,19.46
2016-11-05T04:42:52.067Z,19.35
2016-11-05T04:43:52.020Z,19.28
2016-11-05T04:44:51.702Z,19.28
2016-11-05T04:45:51.993Z,19.35
2016-11-05T04:46:51.969Z,19.31
2016-11-05T04:47:51.653Z,19.39
2016-11-05T04:48:51.941Z,19.31
2016-11-05T04:49:51.926Z,19.32
2016-11-05T04:50:51.906Z,19.3
2016-11-05T04:51:51.584Z,19.43
2016-11-05T04:52:51.875Z,19.32
2016-11-05T04:53:51.884Z,19.45
2016-11-05T04:54:51.834Z,19.39
2016-11-05T04:55:51.829Z,19.31
2016-11-05T04:56:51.504Z,19.34
2016-11-05T04:57:51.781Z,19.34
2016-11-05T04:58:51.771Z,19.34
2016-11-05T04:59:51.758Z,19.38
2016-11-05T05:00:51.741Z,19.42
2016-11-05T05:01:51.724Z,19.45
2016-11-05T05:02:51.711Z,19.35
2016-11-05T05:03:51.691Z,19.43
2016-11-05T05:04:51.682Z,19.42
2016-11-05T05:05:51.657Z,19.46
2016-11-05T05:06:51.342Z,19.45
2016-11-05T05:07:51.331Z,19.53
2016-11-05T05:08:51.315Z,19.55
2016-11-05T05:09:51.292Z,19.61
2016-11-05T05:10:51.576Z,19.62
2016-11-05T05:11:51.559Z,19.71
2016-11-05T05:12:51.250Z,19.72
2016-11-05T05:13:51.231Z,19.79
2016-11-05T05:14:51.511Z,19.79
2016-11-05T05:15:51.191Z,19.86
2016-11-05T05:16:51.482Z,19.94
2016-11-05T05:17:51.460Z,19.97
2016-11-05T05:18:51.459Z,19.92
2016-11-05T05:19:51.426Z,19.92
2016-11-05T05:20:51.413Z,19.94
2016-11-05T05:21:51.428Z,20.1
2016-11-05T05:22:51.385Z,20.08
2016-11-05T05:23:51.362Z,20.13
2016-11-05T05:24:51.349Z,20.2
2016-11-05T05:25:51.339Z,20.17
2016-11-05T05:26:51.013Z,20.15
2016-11-05T05:27:50.997Z,20.12
2016-11-05T05:28:51.285Z,20.19
2016-11-05T05:29:51.266Z,20.23
2016-11-05T05:30:51.251Z,20.2
2016-11-05T05:31:51.268Z,20.16
2016-11-05T05:32:51.223Z,20.16
2016-11-05T05:33:51.199Z,20.13
2016-11-05T05:34:50.886Z,20.22
2016-11-05T05:35:51.165Z,20.22
2016-11-05T05:36:51.154Z,20.17
2016-11-05T05:37:51.135Z,20.2
2016-11-05T05:38:51.119Z,20.22
2016-11-05T05:39:50.801Z,20.19
2016-11-05T05:40:51.087Z,20.23
2016-11-05T05:41:50.774Z,20.22
2016-11-05T05:42:51.056Z,20.19
2016-11-05T05:43:50.737Z,20.25
2016-11-05T05:44:51.020Z,20.2
2016-11-05T05:45:51.005Z,20.23
2016-11-05T05:46:51.017Z,20.27
2016-11-05T05:47:50.972Z,20.19
2016-11-05T05:48:50.963Z,20.2
2016-11-05T05:49:50.943Z,20.16
2016-11-05T05:50:50.627Z,20.22
2016-11-05T05:51:50.909Z,20.23
2016-11-05T05:52:50.890Z,20.22
2016-11-05T05:53:50.871Z,20.2
2016-11-05T05:54:50.862Z,20.31
2016-11-05T05:55:50.838Z,20.33
2016-11-05T05:56:50.833Z,20.25
2016-11-05T05:57:50.810Z,20.33
2016-11-05T05:58:50.797Z,20.31
2016-11-05T05:59:50.778Z,20.34
2016-11-05T06:00:50.764Z,20.31
2016-11-05T06:01:50.743Z,20.37
2016-11-05T06:02:50.730Z,20.35
2016-11-05T06:03:50.713Z,20.35
2016-11-05T06:04:50.700Z,20.35
2016-11-05T06:05:50.684Z,20.34
2016-11-05T06:06:50.663Z,20.3
2016-11-05T06:07:50.658Z,20.33
2016-11-05T06:08:50.641Z,20.33
2016-11-05T06:09:50.623Z,20.35
2016-11-05T06:10:50.596Z,20.33
2016-11-05T06:11:50.283Z,20.31
2016-11-05T06:12:50.264Z,20.35
2016-11-05T06:13:50.552Z,20.31
2016-11-05T06:14:50.537Z,20.33
2016-11-05T06:15:50.528Z,20.34
2016-11-05T06:16:50.509Z,20.38
2016-11-05T06:17:50.194Z,20.41
2016-11-05T06:18:50.474Z,20.35
2016-11-05T06:19:50.459Z,20.4
2016-11-05T06:20:50.438Z,20.41
2016-11-05T06:21:50.425Z,20.34
2016-11-05T06:22:50.407Z,20.46
2016-11-05T06:23:50.394Z,20.34
2016-11-05T06:24:50.073Z,20.38
2016-11-05T06:25:50.358Z,20.33
2016-11-05T06:26:50.038Z,20.33
2016-11-05T06:27:50.323Z,20.34
2016-11-05T06:28:50.012Z,20.38
2016-11-05T06:29:50.297Z,20.38
2016-11-05T06:30:50.288Z,20.41
2016-11-05T06:31:50.266Z,20.35
2016-11-05T06:32:50.252Z,20.4
2016-11-05T06:33:50.228Z,20.37
2016-11-05T06:34:49.917Z,20.44
2016-11-05T06:35:49.899Z,20.42
2016-11-05T06:36:50.186Z,20.46
2016-11-05T06:37:50.165Z,20.44
2016-11-05T06:38:50.154Z,20.4
2016-11-05T06:39:49.840Z,20.44
2016-11-05T06:40:50.121Z,20.44
2016-11-05T06:41:49.504Z,20.44
2016-11-05T06:42:50.087Z,20.48
2016-11-05T06:43:50.073Z,20.46
2016-11-05T06:44:49.758Z,20.48
2016-11-05T06:45:50.045Z,20.44
2016-11-05T06:46:50.025Z,20.51
2016-11-05T06:47:50.003Z,20.42
2016-11-05T06:48:49.995Z,20.4
2016-11-05T06:49:49.977Z,20.51
2016-11-05T06:50:49.959Z,20.44
2016-11-05T06:51:49.941Z,20.44
2016-11-05T06:52:49.637Z,20.51
2016-11-05T06:53:49.908Z,20.41
2016-11-05T06:54:49.899Z,20.44
2016-11-05T06:55:49.881Z,20.44
2016-11-05T06:56:49.864Z,20.44
2016-11-05T06:57:49.853Z,20.44
2016-11-05T06:58:49.533Z,20.48
2016-11-05T06:59:49.852Z,20.5
2016-11-05T07:00:49.509Z,20.48
2016-11-05T07:01:49.779Z,20.48
2016-11-05T07:02:49.466Z,20.53
2016-11-05T07:03:49.756Z,20.53
2016-11-05T07:04:49.735Z,20.53
2016-11-05T07:05:49.723Z,20.56
2016-11-05T07:06:49.409Z,20.51
2016-11-05T07:07:49.684Z,20.54
2016-11-05T07:08:49.375Z,20.54
2016-11-05T07:09:49.657Z,20.48
2016-11-05T07:10:49.640Z,20.48
2016-11-05T07:11:49.329Z,20.48
2016-11-05T07:12:49.601Z,20.48
2016-11-05T07:13:49.592Z,20.48
2016-11-05T07:14:49.573Z,20.51
2016-11-05T07:15:49.570Z,20.46
2016-11-05T07:16:49.543Z,20.56
2016-11-05T07:17:49.531Z,20.5
2016-11-05T07:18:49.514Z,20.48
2016-11-05T07:19:49.504Z,20.56
2016-11-05T07:20:49.178Z,20.5
2016-11-05T07:21:49.502Z,20.48
2016-11-05T07:22:49.147Z,20.48
2016-11-05T07:23:49.134Z,20.48
2016-11-05T07:24:49.116Z,20.5
2016-11-05T07:25:49.435Z,20.44
2016-11-05T07:26:49.388Z,20.53
2016-11-05T07:27:49.372Z,20.53
2016-11-05T07:28:49.354Z,20.53
2016-11-05T07:29:49.337Z,20.56
2016-11-05T07:30:49.329Z,20.44
2016-11-05T07:31:49.304Z,20.53
2016-11-05T07:32:49.294Z,20.53
2016-11-05T07:33:48.978Z,20.57
2016-11-05T07:34:49.256Z,20.58
2016-11-05T07:35:49.239Z,20.63
2016-11-05T07:36:48.919Z,20.6
2016-11-05T07:37:49.216Z,20.66
2016-11-05T07:38:49.193Z,20.63
2016-11-05T07:39:49.174Z,20.58
2016-11-05T07:40:49.166Z,20.56
2016-11-05T07:41:49.151Z,20.57
2016-11-05T07:42:49.128Z,20.61
2016-11-05T07:43:48.815Z,20.58
2016-11-05T07:44:48.798Z,20.61
2016-11-05T07:45:48.819Z,20.58
2016-11-05T07:46:49.078Z,20.58
2016-11-05T07:47:49.083Z,20.63
2016-11-05T07:48:49.036Z,20.61
2016-11-05T07:49:49.023Z,20.5
2016-11-05T07:50:49.006Z,20.48
2016-11-05T07:51:48.993Z,20.53
2016-11-05T07:52:48.974Z,20.58
2016-11-05T07:53:48.657Z,20.6
2016-11-05T07:54:48.944Z,20.5
2016-11-05T07:55:48.933Z,20.58
2016-11-05T07:56:48.910Z,20.61
2016-11-05T07:57:48.901Z,20.6
2016-11-05T07:58:48.573Z,20.61
2016-11-05T07:59:48.868Z,20.6
2016-11-05T08:00:48.845Z,20.56
2016-11-05T08:01:48.842Z,20.57
2016-11-05T08:02:48.819Z,20.56
2016-11-05T08:03:48.797Z,20.6
2016-11-05T08:04:48.489Z,20.71
2016-11-05T08:05:48.475Z,20.64
2016-11-05T08:06:48.754Z,20.72
2016-11-05T08:07:48.736Z,20.68
2016-11-05T08:08:48.728Z,20.71
2016-11-05T08:09:48.710Z,20.68
2016-11-05T08:10:48.691Z,20.63
2016-11-05T08:11:48.680Z,20.66
2016-11-05T08:12:48.661Z,20.64
2016-11-05T08:13:48.643Z,20.64
2016-11-05T08:14:48.665Z,20.61
2016-11-05T08:15:48.609Z,20.61
2016-11-05T08:16:48.597Z,20.6
2016-11-05T08:17:48.588Z,20.61
2016-11-05T08:18:48.562Z,20.66
2016-11-05T08:19:48.556Z,20.61
2016-11-05T08:20:48.533Z,20.61
2016-11-05T08:21:48.520Z,20.64
2016-11-05T08:22:48.515Z,20.63
2016-11-05T08:23:48.492Z,20.64
2016-11-05T08:24:48.475Z,20.64
2016-11-05T08:25:48.455Z,20.69
2016-11-05T08:26:48.436Z,20.63
2016-11-05T08:27:48.413Z,20.63
2016-11-05T08:28:48.410Z,20.73
2016-11-05T08:29:48.388Z,20.75
2016-11-05T08:30:48.373Z,20.76
2016-11-05T08:31:48.364Z,20.69
2016-11-05T08:32:48.341Z,20.73
2016-11-05T08:33:48.332Z,20.72
2016-11-05T08:34:48.009Z,20.79
2016-11-05T08:35:47.995Z,20.57
2016-11-05T08:36:48.284Z,20.48
2016-11-05T08:37:47.665Z,20.51
2016-11-05T08:38:48.243Z,20.5
2016-11-05T08:39:48.236Z,20.5
2016-11-05T08:40:48.221Z,20.61
2016-11-05T08:41:48.200Z,20.61
2016-11-05T08:42:48.191Z,20.69
2016-11-05T08:43:48.174Z,20.64
2016-11-05T08:44:48.152Z,20.63
2016-11-05T08:45:48.173Z,20.66
2016-11-05T08:46:48.124Z,20.66
2016-11-05T08:47:48.107Z,20.71
2016-11-05T08:48:48.089Z,20.63
2016-11-05T08:49:47.778Z,20.64
2016-11-05T08:50:48.055Z,20.63
2016-11-05T08:51:47.748Z,20.63
2016-11-05T08:52:48.025Z,20.66
2016-11-05T08:53:48.016Z,20.68
2016-11-05T08:54:48.006Z,20.63
2016-11-05T08:55:47.697Z,20.64
2016-11-05T08:56:47.977Z,20.64
2016-11-05T08:57:47.955Z,20.71
2016-11-05T08:58:47.934Z,20.63
2016-11-05T08:59:47.929Z,20.66
2016-11-05T09:00:47.606Z,20.68
2016-11-05T09:01:47.891Z,20.66
2016-11-05T09:02:47.869Z,20.63
2016-11-05T09:03:47.558Z,20.68
2016-11-05T09:04:47.266Z,20.63
2016-11-05T09:05:47.836Z,20.69
2016-11-05T09:06:47.505Z,20.63
2016-11-05T09:07:47.791Z,20.68
2016-11-05T09:08:47.782Z,20.64
2016-11-05T09:09:47.761Z,20.68
2016-11-05T09:10:47.745Z,20.64
2016-11-05T09:11:47.728Z,20.72
2016-11-05T09:12:47.716Z,20.75
2016-11-05T09:13:47.738Z,20.75
2016-11-05T09:14:47.681Z,20.75
2016-11-05T09:15:47.678Z,20.72
2016-11-05T09:16:47.053Z,20.76
2016-11-05T09:17:47.680Z,20.78
2016-11-05T09:18:47.616Z,20.76
2016-11-05T09:19:47.321Z,20.76
2016-11-05T09:20:47.288Z,20.71
2016-11-05T09:21:47.575Z,20.75
2016-11-05T09:22:47.558Z,20.73
2016-11-05T09:23:47.553Z,20.71
2016-11-05T09:24:47.527Z,20.76
2016-11-05T09:25:47.512Z,20.71
2016-11-05T09:26:47.497Z,20.78
2016-11-05T09:27:47.478Z,20.75
2016-11-05T09:28:47.471Z,20.63
2016-11-05T09:29:47.145Z,20.61
2016-11-05T09:30:47.436Z,20.5
2016-11-05T09:31:47.418Z,20.48
2016-11-05T09:32:47.096Z,20.56
2016-11-05T09:33:47.386Z,20.53
2016-11-05T09:34:47.367Z,20.64
2016-11-05T09:35:47.358Z,20.68
2016-11-05T09:36:47.333Z,20.68
2016-11-05T09:37:47.330Z,20.68
2016-11-05T09:38:47.010Z,20.69
2016-11-05T09:39:47.292Z,20.66
2016-11-05T09:40:46.974Z,20.63
2016-11-05T09:41:47.263Z,20.64
2016-11-05T09:42:47.240Z,20.61
2016-11-05T09:43:47.225Z,20.69
2016-11-05T09:44:47.207Z,20.69
2016-11-05T09:45:47.196Z,20.71
2016-11-05T09:46:47.187Z,20.71
2016-11-05T09:47:47.164Z,20.72
2016-11-05T09:48:47.146Z,20.73
2016-11-05T09:49:47.135Z,20.76
2016-11-05T09:50:47.117Z,20.72
2016-11-05T09:51:47.099Z,20.75
2016-11-05T09:52:46.780Z,20.76
2016-11-05T09:53:47.067Z,20.75
2016-11-05T09:54:47.053Z,20.79
2016-11-05T09:55:47.042Z,20.75
2016-11-05T09:56:47.023Z,20.69
2016-11-05T09:57:46.702Z,20.75
2016-11-05T09:58:46.987Z,20.71
2016-11-05T09:59:46.980Z,20.72
2016-11-05T10:00:46.966Z,20.81
2016-11-05T10:01:46.967Z,20.75
2016-11-05T10:02:46.934Z,20.71
2016-11-05T10:03:46.921Z,20.64
2016-11-05T10:04:46.901Z,20.64
2016-11-05T10:05:46.884Z,20.71
2016-11-05T10:06:46.871Z,20.72
2016-11-05T10:07:46.848Z,20.73
2016-11-05T10:08:46.839Z,20.73
2016-11-05T10:09:46.823Z,20.76
2016-11-05T10:10:46.798Z,20.75
2016-11-05T10:11:46.785Z,20.73
2016-11-05T10:12:46.768Z,20.63
2016-11-05T10:13:46.758Z,20.61
2016-11-05T10:14:46.450Z,20.46
2016-11-05T10:15:46.724Z,20.63
2016-11-05T10:16:46.709Z,20.66
2016-11-05T10:17:46.392Z,20.66
2016-11-05T10:18:46.673Z,20.64
2016-11-05T10:19:46.668Z,20.72
2016-11-05T10:20:46.642Z,20.75
2016-11-05T10:21:46.632Z,20.76
2016-11-05T10:22:46.613Z,20.76
2016-11-05T10:23:46.591Z,20.71
2016-11-05T10:24:46.581Z,20.73
2016-11-05T10:25:46.565Z,20.76
2016-11-05T10:26:46.548Z,20.79
2016-11-05T10:27:46.232Z,20.73
2016-11-05T10:28:46.524Z,20.79
2016-11-05T10:29:46.508Z,20.81
2016-11-05T10:30:46.487Z,20.85
2016-11-05T10:31:46.473Z,20.79
2016-11-05T10:32:46.476Z,20.82
2016-11-05T10:33:46.440Z,20.87
2016-11-05T10:34:46.117Z,20.81
2016-11-05T10:35:46.408Z,20.87
2016-11-05T10:36:46.400Z,20.83
2016-11-05T10:37:46.378Z,20.87
2016-11-05T10:38:46.361Z,20.85
2016-11-05T10:39:46.347Z,20.87
2016-11-05T10:40:46.334Z,20.9
2016-11-05T10:41:46.319Z,20.91
2016-11-05T10:42:46.305Z,20.85
2016-11-05T10:43:46.286Z,20.81
2016-11-05T10:44:46.271Z,20.78
2016-11-05T10:45:45.958Z,20.79
2016-11-05T10:46:46.235Z,20.83
2016-11-05T10:47:46.220Z,20.87
2016-11-05T10:48:46.203Z,20.83
2016-11-05T10:49:46.198Z,20.81
2016-11-05T10:50:46.175Z,20.85
2016-11-05T10:51:46.200Z,20.81
2016-11-05T10:52:46.144Z,20.83
2016-11-05T10:53:46.123Z,20.76
2016-11-05T10:54:46.109Z,20.9
2016-11-05T10:55:46.091Z,20.85
2016-11-05T10:56:46.079Z,20.83
2016-11-05T10:57:46.066Z,20.85
2016-11-05T10:58:45.751Z,20.87
2016-11-05T10:59:46.028Z,20.82
2016-11-05T11:00:46.016Z,20.85
2016-11-05T11:01:45.993Z,20.88
2016-11-05T11:02:45.684Z,20.91
2016-11-05T11:03:45.961Z,20.9
2016-11-05T11:04:45.952Z,20.87
2016-11-05T11:05:45.934Z,20.87
2016-11-05T11:06:45.615Z,20.83
2016-11-05T11:07:45.906Z,20.88
2016-11-05T11:08:45.889Z,20.85
2016-11-05T11:09:45.573Z,20.87
2016-11-05T11:10:45.856Z,20.71
2016-11-05T11:11:45.541Z,20.87
2016-11-05T11:12:45.225Z,20.81
2016-11-05T11:13:45.814Z,20.88
2016-11-05T11:14:45.790Z,20.88
2016-11-05T11:15:45.777Z,20.9
2016-11-05T11:16:45.765Z,20.9
2016-11-05T11:17:45.754Z,20.91
2016-11-05T11:18:45.735Z,20.94
2016-11-05T11:19:45.421Z,20.83
2016-11-05T11:20:45.700Z,20.85
2016-11-05T11:21:45.383Z,20.91
2016-11-05T11:22:45.668Z,20.88
2016-11-05T11:23:45.658Z,20.87
2016-11-05T11:24:45.335Z,20.81
2016-11-05T11:25:45.632Z,20.9
2016-11-05T11:26:45.307Z,20.96
2016-11-05T11:27:45.594Z,20.97
2016-11-05T11:28:45.577Z,20.93
2016-11-05T11:29:45.561Z,20.94
2016-11-05T11:30:45.548Z,20.96
2016-11-05T11:31:45.527Z,20.96
2016-11-05T11:32:45.515Z,20.94
2016-11-05T11:33:45.501Z,20.93
2016-11-05T11:34:45.189Z,20.97
2016-11-05T11:35:45.468Z,20.94
2016-11-05T11:36:45.453Z,20.93
2016-11-05T11:37:45.430Z,20.97
2016-11-05T11:38:45.421Z,20.93
2016-11-05T11:39:45.405Z,20.93
2016-11-05T11:40:45.386Z,20.9
2016-11-05T11:41:45.375Z,20.97
2016-11-05T11:42:45.356Z,20.91
2016-11-05T11:43:45.336Z,21
2016-11-05T11:44:45.031Z,20.85
2016-11-05T11:45:45.322Z,20.9
2016-11-05T11:46:45.295Z,20.85
2016-11-05T11:47:44.674Z,20.97
2016-11-05T11:48:44.964Z,20.9
2016-11-05T11:49:45.245Z,20.83
2016-11-05T11:50:45.232Z,20.83
2016-11-05T11:51:44.913Z,20.93
2016-11-05T11:52:45.208Z,20.9
2016-11-05T11:53:45.182Z,20.88
2016-11-05T11:54:45.167Z,20.88
2016-11-05T11:55:45.199Z,20.91
2016-11-05T11:56:45.132Z,20.81
2016-11-05T11:57:45.120Z,20.88
2016-11-05T11:58:45.104Z,20.87
2016-11-05T11:59:44.787Z,20.85
2016-11-05T12:00:45.078Z,20.94
2016-11-05T12:01:45.059Z,20.97
2016-11-05T12:02:45.041Z,20.91
2016-11-05T12:03:45.031Z,20.82
2016-11-05T12:04:45.006Z,20.93
2016-11-05T12:05:44.991Z,20.96
2016-11-05T12:06:44.708Z,20.83
2016-11-05T12:07:44.965Z,20.91
2016-11-05T12:08:44.948Z,20.91
2016-11-05T12:09:44.931Z,21.01
2016-11-05T12:10:44.920Z,20.82
2016-11-05T12:11:44.904Z,20.83
2016-11-05T12:12:44.884Z,20.94
2016-11-05T12:13:44.606Z,20.91
2016-11-05T12:14:44.866Z,20.97
2016-11-05T12:15:44.842Z,20.94
2016-11-05T12:16:44.830Z,20.97
2016-11-05T12:17:44.809Z,20.96
2016-11-05T12:18:44.792Z,20.96
2016-11-05T12:19:44.779Z,20.97
2016-11-05T12:20:44.458Z,21
2016-11-05T12:21:44.749Z,20.97
2016-11-05T12:22:44.735Z,21.05
2016-11-05T12:23:44.720Z,21.03
2016-11-05T12:24:44.702Z,20.97
2016-11-05T12:25:44.689Z,21.08
2016-11-05T12:26:44.670Z,20.97
2016-11-05T12:27:44.649Z,21
2016-11-05T12:28:44.660Z,21.01
2016-11-05T12:29:44.618Z,20.96
2016-11-05T12:30:44.307Z,21.01
2016-11-05T12:31:44.590Z,20.96
2016-11-05T12:32:44.569Z,21.01
2016-11-05T12:33:44.257Z,21
2016-11-05T12:34:44.544Z,21.01
2016-11-05T12:35:44.529Z,20.96
2016-11-05T12:36:43.910Z,21.01
2016-11-05T12:37:44.196Z,21.03
2016-11-05T12:38:44.479Z,20.98
2016-11-05T12:39:44.464Z,20.98
2016-11-05T12:40:44.449Z,20.98
2016-11-05T12:41:44.435Z,20.98
2016-11-05T12:42:44.418Z,20.97
2016-11-05T12:43:44.134Z,20.97
2016-11-05T12:44:44.386Z,21
2016-11-05T12:45:44.374Z,20.97
2016-11-05T12:46:44.357Z,21
2016-11-05T12:47:43.744Z,20.91
2016-11-05T12:48:44.361Z,20.94
2016-11-05T12:49:44.306Z,20.93
2016-11-05T12:50:44.294Z,20.85
2016-11-05T12:51:44.277Z,20.83
2016-11-05T12:52:44.273Z,21.01
2016-11-05T12:53:43.943Z,20.81
2016-11-05T12:54:44.230Z,20.83
2016-11-05T12:55:44.224Z,20.87